Time;durP1;ratioP1;P1;durP2;ratioP2;P2;SDS_P1;SDS_P2;PMS_P1;PMS_P2;Temp;Humidity;BMP_temperature;BMP_pressure;BME280_temperature;BME280_humidity;BME280_pressure;Samples;Min_cycle;Max_cycle;Signal;HPM_P1;HPM_P2
2022/11/26 00:01:49;;;;;;;6.22;4.05;;;;;;;;;;4384201;32;67824;-65
2022/11/26 00:04:36;;;;;;;6.70;4.10;;;;;;;;;;4382077;32;67153;-66
2022/11/26 00:07:27;;;;;;;5.18;3.80;;;;;;;;;;4383822;32;72115;-66
2022/11/26 00:10:24;;;;;;;6.75;3.67;;;;;;;;;;4372004;32;66006;-66
2022/11/26 00:13:20;;;;;;;4.95;3.37;;;;;;;;;;4360630;32;68380;-65
2022/11/26 00:16:13;;;;;;;5.55;3.60;;;;;;;;;;4372266;32;59256;-66
2022/11/26 00:18:59;;;;;;;4.75;3.25;;;;;;;;;;4382284;32;70505;-66
2022/11/26 00:21:46;;;;;;;5.78;3.72;;;;;;;;;;4381923;32;69874;-67
2022/11/26 00:24:32;;;;;;;5.32;3.45;;;;;;;;;;4370992;32;67984;-66
2022/11/26 00:27:19;;;;;;;5.35;3.78;;;;;;;;;;4383338;32;59254;-66
2022/11/26 00:30:18;;;;;;;5.22;3.50;;;;;;;;;;4371659;32;70748;-66
2022/11/26 00:33:06;;;;;;;5.40;3.78;;;;;;;;;;4372165;32;69214;-66
2022/11/26 00:36:02;;;;;;;5.12;3.70;;;;;;;;;;4371642;32;67814;-65
2022/11/26 00:39:11;;;;;;;4.18;3.10;;;;;;;;;;4360855;32;70858;-66
2022/11/26 00:41:58;;;;;;;5.72;3.70;;;;;;;;;;4381624;32;66731;-66
2022/11/26 00:44:44;;;;;;;4.90;3.35;;;;;;;;;;4382357;32;67139;-65
2022/11/26 00:47:31;;;;;;;5.32;3.60;;;;;;;;;;4371115;32;59292;-66
2022/11/26 00:50:23;;;;;;;4.55;3.17;;;;;;;;;;4382527;32;70453;-66
2022/11/26 00:53:13;;;;;;;5.05;3.20;;;;;;;;;;4371533;32;65741;-65
2022/11/26 00:56:00;;;;;;;5.12;3.37;;;;;;;;;;4360165;32;68397;-66
2022/11/26 00:58:47;;;;;;;;;;;;;;;;;;4382123;32;59705;-66
2022/11/26 01:01:34;;;;;;;5.80;3.40;;;;;;;;;;4370320;32;70490;-65
2022/11/26 01:04:20;;;;;;;6.57;3.55;;;;;;;;;;4371389;32;68876;-66
2022/11/26 01:07:09;;;;;;;4.68;3.30;;;;;;;;;;4381349;32;68130;-66
2022/11/26 01:09:56;;;;;;;5.45;3.28;;;;;;;;;;4371142;32;70857;-65
2022/11/26 01:12:42;;;;;;;5.68;3.50;;;;;;;;;;4371399;32;64693;-66
2022/11/26 01:15:29;;;;;;;5.15;3.80;;;;;;;;;;4371554;32;66951;-66
2022/11/26 01:18:18;;;;;;;5.50;3.90;;;;;;;;;;4383210;32;66748;-67
2022/11/26 01:21:05;;;;;;;5.15;3.70;;;;;;;;;;4382955;32;71526;-66
2022/11/26 01:23:51;;;;;;;;;;;;;;;;;;4382111;32;65926;-66
2022/11/26 01:26:42;;;;;;;4.78;3.37;;;;;;;;;;4380852;32;68558;-66
2022/11/26 01:29:29;;;;;;;4.87;3.45;;;;;;;;;;4371232;32;60230;-66
2022/11/26 01:32:16;;;;;;;5.30;3.80;;;;;;;;;;4383021;32;70412;-66
2022/11/26 01:35:03;;;;;;;6.35;3.92;;;;;;;;;;4381553;32;69228;-66
2022/11/26 01:37:50;;;;;;;5.72;3.87;;;;;;;;;;4381346;32;67521;-68
2022/11/26 01:41:14;;;;;;;6.57;3.97;;;;;;;;;;4381819;32;71629;-65
2022/11/26 01:44:01;;;;;;;6.07;3.92;;;;;;;;;;4370831;32;70616;-65
2022/11/26 01:46:49;;;;;;;6.28;4.07;;;;;;;;;;4370871;32;69232;-65
2022/11/26 01:49:38;;;;;;;6.45;4.28;;;;;;;;;;4370045;32;68238;-67
2022/11/26 01:52:25;;;;;;;6.35;4.12;;;;;;;;;;4381322;32;70726;-66
2022/11/26 01:55:16;;;;;;;6.30;4.05;;;;;;;;;;4381692;32;65977;-66
2022/11/26 01:58:03;;;;;;;6.03;4.10;;;;;;;;;;4370957;32;67110;-66
2022/11/26 02:00:50;;;;;;;6.75;4.50;;;;;;;;;;4372309;32;59046;-65
2022/11/26 02:04:03;;;;;;;6.32;4.37;;;;;;;;;;4373316;32;71007;-65
2022/11/26 02:06:51;;;;;;;7.72;5.20;;;;;;;;;;4383339;32;70335;-66
2022/11/26 02:09:38;;;;;;;6.80;4.90;;;;;;;;;;4373608;32;67031;-66
2022/11/26 02:12:24;;;;;;;8.05;4.70;;;;;;;;;;4372934;32;59910;-66
2022/11/26 02:15:12;;;;;;;8.73;4.90;;;;;;;;;;4372217;32;72214;-67
2022/11/26 02:18:06;;;;;;;7.80;4.60;;;;;;;;;;4372435;32;68921;-67
2022/11/26 02:20:58;;;;;;;8.88;5.15;;;;;;;;;;4373341;32;66834;-66
2022/11/26 02:24:23;;;;;;;8.20;4.85;;;;;;;;;;4383687;32;70975;-66
2022/11/26 02:27:41;;;;;;;6.65;4.53;;;;;;;;;;4372012;32;64060;-66
2022/11/26 02:30:33;;;;;;;7.45;5.37;;;;;;;;;;4385208;32;67152;-66
2022/11/26 02:33:47;;;;;;;8.10;4.93;;;;;;;;;;4373345;32;59231;-66
2022/11/26 02:36:55;;;;;;;7.82;5.03;;;;;;;;;;4383117;32;72724;-66
2022/11/26 02:39:42;;;;;;;7.68;4.93;;;;;;;;;;4384932;32;64878;-65
2022/11/26 02:42:33;;;;;;;7.18;4.93;;;;;;;;;;4383102;32;67114;-66
2022/11/26 02:45:26;;;;;;;7.37;5.20;;;;;;;;;;4373369;32;59116;-67
2022/11/26 02:48:17;;;;;;;6.47;4.30;;;;;;;;;;4383594;32;70648;-65
2022/11/26 02:51:19;;;;;;;9.02;4.80;;;;;;;;;;4383681;32;69539;-67
2022/11/26 02:54:07;;;;;;;9.43;5.68;;;;;;;;;;4372791;32;67733;-67
2022/11/26 02:56:54;;;;;;;7.15;4.65;;;;;;;;;;4362265;32;73101;-65
2022/11/26 02:59:41;;;;;;;7.78;5.00;;;;;;;;;;4385026;32;69271;-65
2022/11/26 03:02:33;;;;;;;7.65;5.20;;;;;;;;;;4372378;32;69996;-66
2022/11/26 03:05:20;;;;;;;7.20;4.62;;;;;;;;;;4362603;32;67627;-66
2022/11/26 03:08:07;;;;;;;8.02;4.50;;;;;;;;;;4372809;32;71777;-66
2022/11/26 03:10:53;;;;;;;7.37;4.82;;;;;;;;;;4372127;32;66900;-67
2022/11/26 03:13:40;;;;;;;7.62;4.72;;;;;;;;;;4361098;32;67822;-67
2022/11/26 03:16:27;;;;;;;6.37;4.32;;;;;;;;;;4372996;32;60380;-66
2022/11/26 03:19:13;;;;;;;8.25;5.03;;;;;;;;;;4372945;32;69494;-66
2022/11/26 03:22:00;;;;;;;6.40;4.65;;;;;;;;;;4372599;32;68677;-66
2022/11/26 03:24:47;;;;;;;7.28;4.60;;;;;;;;;;4372616;32;67747;-65
2022/11/26 03:27:33;;;;;;;6.03;3.83;;;;;;;;;;4384298;32;60255;-66
2022/11/26 03:30:20;;;;;;;8.10;4.53;;;;;;;;;;4384308;32;70546;-66
2022/11/26 03:33:07;;;;;;;7.18;4.50;;;;;;;;;;4372363;32;68246;-65
2022/11/26 03:35:53;;;;;;;7.90;4.15;;;;;;;;;;4383024;32;67558;-66
2022/11/26 03:38:40;;;;;;;6.32;4.10;;;;;;;;;;4382742;32;71066;-67
2022/11/26 03:41:27;;;;;;;5.50;3.92;;;;;;;;;;4383112;32;64897;-66
2022/11/26 03:44:13;;;;;;;7.35;4.60;;;;;;;;;;4371355;32;68686;-65
2022/11/26 03:47:00;;;;;;;6.30;4.03;;;;;;;;;;4383125;32;60198;-66
2022/11/26 03:49:46;;;;;;;7.37;3.95;;;;;;;;;;4384001;32;71786;-66
2022/11/26 03:52:33;;;;;;;;;;;;;;;;;;4383365;32;65670;-67
2022/11/26 03:55:19;;;;;;;5.80;4.05;;;;;;;;;;4384194;32;68001;-66
2022/11/26 03:58:06;;;;;;;7.25;4.30;;;;;;;;;;4383645;32;58911;-67
2022/11/26 04:00:53;;;;;;;6.43;3.87;;;;;;;;;;4371352;32;71251;-66
2022/11/26 04:03:40;;;;;;;6.00;3.70;;;;;;;;;;4383876;32;68260;-66
2022/11/26 04:06:26;;;;;;;6.62;3.90;;;;;;;;;;4382547;32;67675;-67
2022/11/26 04:09:13;;;;;;;6.55;4.37;;;;;;;;;;4371956;32;70868;-67
2022/11/26 04:12:00;;;;;;;6.55;3.95;;;;;;;;;;4371430;32;65824;-66
2022/11/26 04:14:47;;;;;;;5.93;4.00;;;;;;;;;;4372096;32;69254;-66
2022/11/26 04:17:33;;;;;;;6.20;4.03;;;;;;;;;;4361191;32;67858;-66
2022/11/26 04:20:20;;;;;;;5.53;4.10;;;;;;;;;;4383462;32;71839;-67
2022/11/26 04:23:06;;;;;;;5.68;3.87;;;;;;;;;;4382539;32;65794;-66
2022/11/26 04:25:53;;;;;;;5.60;3.97;;;;;;;;;;4371614;32;67293;-65
2022/11/26 04:28:40;;;;;;;6.50;4.20;;;;;;;;;;4382367;32;60023;-66
2022/11/26 04:31:26;;;;;;;6.80;3.85;;;;;;;;;;4382444;32;70334;-65
2022/11/26 04:34:13;;;;;;;7.12;4.40;;;;;;;;;;4370975;32;68927;-65
2022/11/26 04:37:00;;;;;;;;;;;;;;;;;;4382695;32;67512;-66
2022/11/26 04:39:47;;;;;;;5.85;3.65;;;;;;;;;;4383102;32;59568;-67
2022/11/26 04:42:33;;;;;;;6.03;3.90;;;;;;;;;;4372044;32;70480;-67
2022/11/26 04:45:20;;;;;;;;;;;;;;;;;;4382475;32;69375;-66
2022/11/26 04:48:07;;;;;;;6.30;3.95;;;;;;;;;;4370850;32;68397;-66
2022/11/26 04:50:53;;;;;;;7.47;4.05;;;;;;;;;;4370649;32;71335;-66
2022/11/26 04:53:40;;;;;;;8.30;4.03;;;;;;;;;;4370667;32;67195;-66
2022/11/26 04:56:27;;;;;;;7.07;3.95;;;;;;;;;;4383362;32;67901;-65
2022/11/26 04:59:13;;;;;;;5.97;3.87;;;;;;;;;;4370661;32;60355;-66
2022/11/26 05:02:00;;;;;;;7.68;4.30;;;;;;;;;;4370400;32;68504;-65
2022/11/26 05:04:47;;;;;;;6.37;3.67;;;;;;;;;;4381963;32;66147;-66
2022/11/26 05:07:34;;;;;;;6.60;3.60;;;;;;;;;;4371297;32;68079;-66
2022/11/26 05:10:21;;;;;;;6.40;4.07;;;;;;;;;;4382001;32;59127;-66
2022/11/26 05:13:07;;;;;;;5.65;4.00;;;;;;;;;;4381952;32;70672;-65
2022/11/26 05:15:54;;;;;;;5.87;4.03;;;;;;;;;;4360109;32;69869;-66
2022/11/26 05:18:41;;;;;;;5.72;3.78;;;;;;;;;;4360084;32;68220;-67
2022/11/26 05:21:28;;;;;;;6.57;3.90;;;;;;;;;;4371118;32;72077;-67
2022/11/26 05:24:15;;;;;;;6.00;3.83;;;;;;;;;;4371557;32;64980;-65
2022/11/26 05:27:02;;;;;;;6.70;3.75;;;;;;;;;;4370685;32;69213;-66
2022/11/26 05:29:48;;;;;;;8.32;3.70;;;;;;;;;;4382940;32;67582;-66
2022/11/26 05:32:34;;;;;;;;;;;;;;;;;;4371370;32;71638;-66
2022/11/26 05:35:21;;;;;;;9.60;4.70;;;;;;;;;;4382736;32;66105;-66
2022/11/26 05:38:08;;;;;;;;;;;;;;;;;;4370754;32;65918;-67
2022/11/26 05:40:54;;;;;;;7.15;4.10;;;;;;;;;;4382168;32;59819;-66
2022/11/26 05:43:40;;;;;;;;;;;;;;;;;;4383053;32;69584;-67
2022/11/26 05:46:27;;;;;;;5.40;4.05;;;;;;;;;;4371291;32;68413;-66
2022/11/26 05:49:13;;;;;;;;;;;;;;;;;;4381810;32;66623;-66
2022/11/26 05:52:00;;;;;;;6.75;4.53;;;;;;;;;;4359900;32;60375;-66
2022/11/26 05:54:46;;;;;;;6.68;4.22;;;;;;;;;;4370881;32;70497;-65
2022/11/26 05:57:33;;;;;;;6.45;4.35;;;;;;;;;;4370179;32;70046;-66
2022/11/26 06:00:20;;;;;;;7.47;4.35;;;;;;;;;;4381850;32;67660;-66
2022/11/26 06:03:09;;;;;;;;;;;;;;;;;;4383322;32;70765;-65
2022/11/26 06:05:55;;;;;;;7.60;4.45;;;;;;;;;;4384550;32;65928;-68
2022/11/26 06:08:42;;;;;;;7.80;4.30;;;;;;;;;;4388121;32;66979;-65
2022/11/26 06:11:28;;;;;;;7.30;4.30;;;;;;;;;;4384638;32;59905;-66
2022/11/26 06:14:15;;;;;;;8.20;4.53;;;;;;;;;;4384043;32;69541;-67
2022/11/26 06:17:02;;;;;;;6.15;4.22;;;;;;;;;;4383921;32;64880;-67
2022/11/26 06:19:48;;;;;;;;;;;;;;;;;;4371992;32;67872;-67
2022/11/26 06:22:39;;;;;;;7.57;4.72;;;;;;;;;;4382054;32;59583;-66
2022/11/26 06:25:26;;;;;;;7.03;4.70;;;;;;;;;;4369885;32;70422;-65
2022/11/26 06:28:13;;;;;;;6.45;4.37;;;;;;;;;;4380894;32;68257;-67
2022/11/26 06:30:59;;;;;;;6.00;4.47;;;;;;;;;;4382550;32;67740;-66
2022/11/26 06:33:46;;;;;;;7.15;4.85;;;;;;;;;;4381039;32;71932;-66
2022/11/26 06:36:32;;;;;;;6.75;4.22;;;;;;;;;;4381125;32;64663;-65
2022/11/26 06:39:19;;;;;;;8.07;4.43;;;;;;;;;;4382679;32;67039;-65
2022/11/26 06:42:06;;;;;;;8.55;5.32;;;;;;;;;;4380596;32;68206;-66
2022/11/26 06:44:53;;;;;;;6.87;4.12;;;;;;;;;;4382394;32;71939;-66
2022/11/26 06:47:40;;;;;;;;;;;;;;;;;;4382520;32;65020;-66
2022/11/26 06:50:26;;;;;;;8.98;4.90;;;;;;;;;;4372320;32;68226;-66
2022/11/26 06:53:16;;;;;;;9.55;5.25;;;;;;;;;;4383308;32;60934;-66
2022/11/26 06:56:09;;;;;;;7.78;4.60;;;;;;;;;;4371829;32;71395;-65
2022/11/26 06:58:56;;;;;;;9.35;5.55;;;;;;;;;;4361449;32;69658;-65
2022/11/26 07:01:42;;;;;;;7.93;4.12;;;;;;;;;;4373067;32;67552;-66
2022/11/26 07:04:29;;;;;;;6.82;4.53;;;;;;;;;;4373046;32;71785;-65
2022/11/26 07:07:15;;;;;;;6.90;4.40;;;;;;;;;;4372562;32;70943;-65
2022/11/26 07:10:02;;;;;;;7.22;4.65;;;;;;;;;;4384851;32;69551;-66
2022/11/26 07:12:48;;;;;;;8.38;5.32;;;;;;;;;;4361668;32;67163;-66
2022/11/26 07:15:35;;;;;;;7.15;4.72;;;;;;;;;;4383200;32;72081;-66
2022/11/26 07:18:21;;;;;;;8.07;4.40;;;;;;;;;;4383537;32;66033;-66
2022/11/26 07:21:12;;;;;;;7.90;4.75;;;;;;;;;;4371990;32;67959;-66
2022/11/26 07:23:59;;;;;;;8.93;4.70;;;;;;;;;;4372940;32;60143;-66
2022/11/26 07:26:46;;;;;;;6.37;3.92;;;;;;;;;;4382879;32;69462;-66
2022/11/26 07:29:33;;;;;;;9.32;4.80;;;;;;;;;;4371856;32;69039;-66
2022/11/26 07:32:19;;;;;;;9.05;4.78;;;;;;;;;;4371748;32;68032;-67
2022/11/26 07:35:06;;;;;;;6.60;3.92;;;;;;;;;;4382971;32;60998;-68
2022/11/26 07:37:53;;;;;;;6.90;4.10;;;;;;;;;;4384468;32;70525;-69
2022/11/26 07:40:40;;;;;;;;;;;;;;;;;;4372615;32;69078;-67
2022/11/26 07:43:27;;;;;;;6.18;4.30;;;;;;;;;;4383292;32;67048;-70
2022/11/26 07:46:16;;;;;;;6.50;4.03;;;;;;;;;;4372276;32;70939;-69
2022/11/26 07:49:04;;;;;;;7.55;3.83;;;;;;;;;;4382755;32;65132;-69
2022/11/26 07:51:50;;;;;;;6.22;3.80;;;;;;;;;;4361092;32;67619;-70
2022/11/26 07:54:37;;;;;;;6.75;3.47;;;;;;;;;;4371529;32;65490;-69
2022/11/26 07:57:24;;;;;;;6.93;4.10;;;;;;;;;;4371228;32;71813;-67
2022/11/26 08:00:11;;;;;;;6.95;3.85;;;;;;;;;;4371250;32;66850;-68
2022/11/26 08:02:59;;;;;;;6.37;3.78;;;;;;;;;;4384408;32;68099;-71
2022/11/26 08:05:46;;;;;;;7.57;4.10;;;;;;;;;;4372281;32;59300;-71
2022/11/26 08:08:34;;;;;;;7.93;4.40;;;;;;;;;;4371219;32;71121;-69
2022/11/26 08:11:22;;;;;;;7.47;4.32;;;;;;;;;;4382459;32;68211;-70
2022/11/26 08:14:12;;;;;;;5.78;3.40;;;;;;;;;;4371903;32;66830;-69
2022/11/26 08:16:59;;;;;;;5.62;3.28;;;;;;;;;;4383951;32;71984;-69
2022/11/26 08:19:45;;;;;;;6.47;3.75;;;;;;;;;;4382268;32;70547;-66
2022/11/26 08:22:32;;;;;;;5.87;3.62;;;;;;;;;;4382551;32;69553;-70
2022/11/26 08:25:18;;;;;;;5.37;3.65;;;;;;;;;;4382389;32;67572;-68
2022/11/26 08:28:05;;;;;;;6.47;4.50;;;;;;;;;;4360265;32;72622;-67
2022/11/26 08:31:03;;;;;;;6.37;3.87;;;;;;;;;;4370867;32;65940;-65
2022/11/26 08:33:50;;;;;;;6.28;3.65;;;;;;;;;;4371857;32;68207;-64
2022/11/26 08:36:37;;;;;;;5.68;3.83;;;;;;;;;;4371863;32;59106;-64
2022/11/26 08:39:23;;;;;;;6.90;4.45;;;;;;;;;;4370725;32;70448;-65
2022/11/26 08:42:10;;;;;;;5.95;4.12;;;;;;;;;;4371402;32;68055;-65
2022/11/26 08:44:57;;;;;;;7.03;4.18;;;;;;;;;;4371617;32;67734;-66
2022/11/26 08:47:43;;;;;;;;;;;;;;;;;;4384127;32;60138;-66
2022/11/26 08:50:30;;;;;;;7.32;5.05;;;;;;;;;;4383550;32;69907;-65
2022/11/26 08:53:17;;;;;;;8.82;4.80;;;;;;;;;;4382010;32;69221;-65
2022/11/26 08:56:10;;;;;;;7.43;4.57;;;;;;;;;;4371319;32;67268;-66
2022/11/26 08:58:57;;;;;;;6.25;4.28;;;;;;;;;;4381956;32;71919;-65
2022/11/26 09:01:43;;;;;;;5.65;4.15;;;;;;;;;;4360590;32;64998;-66
2022/11/26 09:04:30;;;;;;;6.50;4.45;;;;;;;;;;4382019;32;67516;-65
2022/11/26 09:07:17;;;;;;;7.62;5.35;;;;;;;;;;4370908;32;60756;-65
2022/11/26 09:10:04;;;;;;;5.93;4.32;;;;;;;;;;4381116;32;70777;-66
2022/11/26 09:12:51;;;;;;;7.78;4.70;;;;;;;;;;4371293;32;65482;-66
2022/11/26 09:15:38;;;;;;;;;;;;;;;;;;4383498;32;67428;-67
2022/11/26 09:18:25;;;;;;;8.15;5.00;;;;;;;;;;4381739;32;60301;-66
2022/11/26 09:21:11;;;;;;;6.20;4.22;;;;;;;;;;4371192;32;70372;-67
2022/11/26 09:23:58;;;;;;;9.70;5.57;;;;;;;;;;4382302;32;69348;-66
2022/11/26 09:26:47;;;;;;;12.15;5.72;;;;;;;;;;4381666;32;67674;-66
2022/11/26 09:29:33;;;;;;;6.22;4.37;;;;;;;;;;4370717;32;70987;-66
2022/11/26 09:32:20;;;;;;;7.75;4.80;;;;;;;;;;4381947;32;64690;-66
2022/11/26 09:35:10;;;;;;;7.75;5.00;;;;;;;;;;4381429;32;69224;-66
2022/11/26 09:37:56;;;;;;;11.40;5.65;;;;;;;;;;4381543;32;67774;-65
2022/11/26 09:40:54;;;;;;;7.78;5.07;;;;;;;;;;4381306;32;71679;-67
2022/11/26 09:44:08;;;;;;;10.88;5.57;;;;;;;;;;4370800;32;64477;-66
2022/11/26 09:47:13;;;;;;;9.10;5.32;;;;;;;;;;4382586;32;67997;-65
2022/11/26 09:50:06;;;;;;;8.23;5.32;;;;;;;;;;4382793;32;59164;-66
2022/11/26 09:52:56;;;;;;;14.32;6.07;;;;;;;;;;4370775;32;69609;-65
2022/11/26 09:55:47;;;;;;;8.57;5.60;;;;;;;;;;4381343;32;68410;-67
2022/11/26 09:58:47;;;;;;;8.13;5.28;;;;;;;;;;4382576;32;66773;-66
2022/11/26 10:01:34;;;;;;;10.35;5.07;;;;;;;;;;4370785;32;59533;-66
2022/11/26 10:04:27;;;;;;;9.30;5.37;;;;;;;;;;4382467;32;70822;-66
2022/11/26 10:07:35;;;;;;;9.93;5.78;;;;;;;;;;4381154;32;69168;-65
2022/11/26 10:10:27;;;;;;;;;;;;;;;;;;4382719;32;66709;-67
2022/11/26 10:13:32;;;;;;;9.32;5.50;;;;;;;;;;4391855;32;71792;-65
2022/11/26 10:16:22;;;;;;;8.23;5.20;;;;;;;;;;4381183;32;65863;-66
2022/11/26 10:19:31;;;;;;;7.30;4.37;;;;;;;;;;4381248;32;67479;-65
2022/11/26 10:22:28;;;;;;;7.78;5.07;;;;;;;;;;4384452;32;60147;-65
2022/11/26 10:25:20;;;;;;;8.97;5.60;;;;;;;;;;4384968;32;71951;-65
2022/11/26 10:28:39;;;;;;;9.43;5.15;;;;;;;;;;4373088;32;65020;-67
2022/11/26 10:31:32;;;;;;;8.63;5.20;;;;;;;;;;4383671;32;68396;-69
2022/11/26 10:34:36;;;;;;;9.27;5.28;;;;;;;;;;4351760;32;60814;-66
2022/11/26 10:37:25;;;;;;;9.82;5.05;;;;;;;;;;4372455;32;71851;-66
2022/11/26 10:40:23;;;;;;;8.38;5.22;;;;;;;;;;4372379;32;70420;-64
2022/11/26 10:43:11;;;;;;;;;;;;;;;;;;4384241;32;66783;-66
2022/11/26 10:45:58;;;;;;;9.73;5.30;;;;;;;;;;4383025;32;71393;-66
2022/11/26 10:48:45;;;;;;;8.80;5.68;;;;;;;;;;4383748;32;65751;-65
2022/11/26 10:51:32;;;;;;;8.55;4.68;;;;;;;;;;4383572;32;69677;-67
2022/11/26 10:54:29;;;;;;;7.07;4.22;;;;;;;;;;4361628;32;67208;-65
2022/11/26 10:57:18;;;;;;;7.93;5.40;;;;;;;;;;4372632;32;71847;-66
2022/11/26 11:00:06;;;;;;;8.57;4.68;;;;;;;;;;4372310;32;66731;-64
2022/11/26 11:02:53;;;;;;;6.93;4.53;;;;;;;;;;4383752;32;67495;-66
2022/11/26 11:05:40;;;;;;;10.10;5.32;;;;;;;;;;4372985;32;60140;-64
2022/11/26 11:08:32;;;;;;;9.23;5.43;;;;;;;;;;4371976;32;71230;-65
2022/11/26 11:11:27;;;;;;;8.52;5.15;;;;;;;;;;4383066;32;68493;-65
2022/11/26 11:14:30;;;;;;;11.38;6.35;;;;;;;;;;4372659;32;67677;-64
2022/11/26 11:17:33;;;;;;;7.55;4.15;;;;;;;;;;4372459;32;60599;-65
2022/11/26 11:20:33;;;;;;;6.35;3.85;;;;;;;;;;4383198;32;70534;-64
2022/11/26 11:23:22;;;;;;;8.65;5.05;;;;;;;;;;4382988;32;68367;-65
2022/11/26 11:26:16;;;;;;;8.75;5.72;;;;;;;;;;4371619;32;68073;-70
2022/11/26 11:29:03;;;;;;;8.13;5.35;;;;;;;;;;4383023;32;70736;-67
2022/11/26 11:31:50;;;;;;;;;;;;;;;;;;4384617;32;65917;-65
2022/11/26 11:34:38;;;;;;;10.68;5.30;;;;;;;;;;4393533;32;68305;-65
2022/11/26 11:37:25;;;;;;;8.10;5.30;;;;;;;;;;4372501;32;60397;-65
2022/11/26 11:40:19;;;;;;;8.10;5.55;;;;;;;;;;4382666;32;70412;-66
2022/11/26 11:43:06;;;;;;;8.55;5.40;;;;;;;;;;4361240;32;66850;-66
2022/11/26 11:45:53;;;;;;;9.57;5.70;;;;;;;;;;4384100;32;67440;-64
2022/11/26 11:48:48;;;;;;;;;;;;;;;;;;4372039;32;60831;-66
2022/11/26 11:51:38;;;;;;;9.00;5.75;;;;;;;;;;4383014;32;69464;-66
2022/11/26 11:54:46;;;;;;;11.07;6.35;;;;;;;;;;4371979;32;69707;-67
2022/11/26 11:57:45;;;;;;;9.98;5.78;;;;;;;;;;4372093;32;66893;-67
2022/11/26 12:00:46;;;;;;;9.25;5.70;;;;;;;;;;4361269;32;72072;-66
2022/11/26 12:03:58;;;;;;;10.13;5.65;;;;;;;;;;4384062;32;65135;-69
2022/11/26 12:07:06;;;;;;;6.35;4.12;;;;;;;;;;4383931;32;68165;-66
2022/11/26 12:09:55;;;;;;;;;;;;;;;;;;4372180;32;67853;-66
2022/11/26 12:12:54;;;;;;;10.07;5.70;;;;;;;;;;4382606;32;71057;-66
2022/11/26 12:16:04;;;;;;;10.43;6.32;;;;;;;;;;4361570;32;66012;-66
2022/11/26 12:19:08;;;;;;;10.07;5.85;;;;;;;;;;4371007;32;68637;-66
2022/11/26 12:22:17;;;;;;;8.75;5.00;;;;;;;;;;4382423;32;60520;-66
2022/11/26 12:25:06;;;;;;;7.43;4.45;;;;;;;;;;4381889;32;71316;-66
2022/11/26 12:28:13;;;;;;;7.97;4.53;;;;;;;;;;4371420;32;68954;-65
2022/11/26 12:31:02;;;;;;;7.10;4.50;;;;;;;;;;4360443;32;67535;-65
2022/11/26 12:33:56;;;;;;;6.90;4.28;;;;;;;;;;4361523;32;59069;-66
2022/11/26 12:36:49;;;;;;;6.78;4.47;;;;;;;;;;4382487;32;70546;-65
2022/11/26 12:39:42;;;;;;;6.60;4.30;;;;;;;;;;4382294;32;69313;-65
2022/11/26 12:42:34;;;;;;;8.35;4.50;;;;;;;;;;4381968;32;67736;-65
2022/11/26 12:45:32;;;;;;;7.85;4.70;;;;;;;;;;4369986;32;71738;-65
2022/11/26 12:48:39;;;;;;;6.18;4.50;;;;;;;;;;4372188;32;65892;-65
2022/11/26 12:51:32;;;;;;;6.27;4.27;;;;;;;;;;4383399;32;67431;-64
2022/11/26 12:54:36;;;;;;;7.40;4.45;;;;;;;;;;4372671;32;60420;-65
2022/11/26 12:57:33;;;;;;;6.18;4.03;;;;;;;;;;4371647;32;70444;-65
2022/11/26 13:00:34;;;;;;;6.25;3.85;;;;;;;;;;4371773;32;64931;-65
2022/11/26 13:03:29;;;;;;;9.52;4.60;;;;;;;;;;4371028;32;69146;-66
2022/11/26 13:06:25;;;;;;;6.82;4.30;;;;;;;;;;4382266;32;59342;-65
2022/11/26 13:09:30;;;;;;;7.43;4.35;;;;;;;;;;4370487;32;71380;-66
2022/11/26 13:12:51;;;;;;;7.10;4.72;;;;;;;;;;4382981;32;68152;-66
2022/11/26 13:16:18;;;;;;;6.45;4.32;;;;;;;;;;4357816;32;68483;-65
2022/11/26 13:19:28;;;;;;;5.83;3.77;;;;;;;;;;4371102;32;71763;-65
2022/11/26 13:22:40;;;;;;;6.22;4.12;;;;;;;;;;4380647;32;65023;-65
2022/11/26 13:25:26;;;;;;;6.95;3.95;;;;;;;;;;4370326;32;67483;-64
2022/11/26 13:28:25;;;;;;;7.80;4.30;;;;;;;;;;4381462;32;67858;-67
2022/11/26 13:31:52;;;;;;;7.25;4.00;;;;;;;;;;4359590;32;72834;-65
2022/11/26 13:35:04;;;;;;;6.55;4.20;;;;;;;;;;4381473;32;66321;-66
2022/11/26 13:37:54;;;;;;;7.00;3.85;;;;;;;;;;4371160;32;68043;-66
2022/11/26 13:41:16;;;;;;;8.27;4.30;;;;;;;;;;4381424;32;61437;-66
2022/11/26 13:44:10;;;;;;;6.45;3.80;;;;;;;;;;4381430;32;70690;-65
2022/11/26 13:47:33;;;;;;;7.10;3.97;;;;;;;;;;4381519;32;68246;-65
2022/11/26 13:50:22;;;;;;;7.80;3.70;;;;;;;;;;4363665;32;67913;-66
2022/11/26 13:53:20;;;;;;;6.93;3.90;;;;;;;;;;4381751;32;71945;-66
2022/11/26 13:56:06;;;;;;;;;;;;;;;;;;4382106;32;70197;-65
2022/11/26 13:59:01;;;;;;;8.80;3.12;;;;;;;;;;4384262;32;69531;-66
2022/11/26 14:01:48;;;;;;;6.55;3.28;;;;;;;;;;4373217;32;67786;-66
2022/11/26 14:04:43;;;;;;;6.95;3.30;;;;;;;;;;4383911;32;70997;-67
2022/11/26 14:07:30;;;;;;;8.38;3.55;;;;;;;;;;4361877;32;65839;-66
2022/11/26 14:10:35;;;;;;;6.60;4.22;;;;;;;;;;4385129;32;67408;-65
2022/11/26 14:13:22;;;;;;;5.20;3.25;;;;;;;;;;4385622;32;59322;-66
2022/11/26 14:16:09;;;;;;;5.85;3.50;;;;;;;;;;4383801;32;69642;-65
2022/11/26 14:18:57;;;;;;;;;;;;;;;;;;4385388;32;69212;-66
2022/11/26 14:22:02;;;;;;;7.37;4.05;;;;;;;;;;4373503;32;68127;-65
2022/11/26 14:24:51;;;;;;;7.00;3.20;;;;;;;;;;4385123;32;59467;-66
2022/11/26 14:27:51;;;;;;;5.97;3.90;;;;;;;;;;4371958;32;71138;-65
2022/11/26 14:30:37;;;;;;;11.90;7.18;;;;;;;;;;4362543;32;69397;-66
2022/11/26 14:33:27;;;;;;;6.00;3.17;;;;;;;;;;4383301;32;68364;-65
2022/11/26 14:36:25;;;;;;;7.35;3.60;;;;;;;;;;4383605;32;70875;-66
2022/11/26 14:39:15;;;;;;;6.25;3.53;;;;;;;;;;4372982;32;64938;-66
2022/11/26 14:42:02;;;;;;;8.15;3.92;;;;;;;;;;4383574;32;67267;-65
2022/11/26 14:45:02;;;;;;;8.73;3.75;;;;;;;;;;4384929;32;59162;-65
2022/11/26 14:47:51;;;;;;;11.30;3.45;;;;;;;;;;4372757;32;70467;-66
2022/11/26 14:50:38;;;;;;;6.93;3.25;;;;;;;;;;4383389;32;64843;-66
2022/11/26 14:53:25;;;;;;;;;;;;;;;;;;4373135;32;67732;-66
2022/11/26 14:56:12;;;;;;;5.90;2.95;;;;;;;;;;4383828;32;60469;-65
2022/11/26 14:59:01;;;;;;;6.97;3.62;;;;;;;;;;4362357;32;70490;-66
2022/11/26 15:01:48;;;;;;;7.00;3.45;;;;;;;;;;4372658;32;69596;-66
2022/11/26 15:04:37;;;;;;;4.85;3.22;;;;;;;;;;4372016;32;67759;-65
2022/11/26 15:07:24;;;;;;;6.43;3.58;;;;;;;;;;4384232;32;71581;-66
2022/11/26 15:10:14;;;;;;;5.28;3.37;;;;;;;;;;4371688;32;70746;-65
2022/11/26 15:13:27;;;;;;;8.00;2.90;;;;;;;;;;4383299;32;68535;-66
2022/11/26 15:16:29;;;;;;;4.22;3.00;;;;;;;;;;4371750;32;68357;-66
2022/11/26 15:19:15;;;;;;;6.28;4.20;;;;;;;;;;4382933;32;70804;-64
2022/11/26 15:22:08;;;;;;;5.12;3.00;;;;;;;;;;4384360;32;66193;-66
2022/11/26 15:24:55;;;;;;;5.00;2.87;;;;;;;;;;4383078;32;67421;-65
2022/11/26 15:27:57;;;;;;;2.75;1.92;;;;;;;;;;4372243;32;60250;-66
2022/11/26 15:30:59;;;;;;;7.45;3.37;;;;;;;;;;4382430;32;70949;-66
2022/11/26 15:33:46;;;;;;;5.62;3.20;;;;;;;;;;4382935;32;69434;-65
2022/11/26 15:36:34;;;;;;;8.60;3.65;;;;;;;;;;4361247;32;68817;-65
2022/11/26 15:39:29;;;;;;;6.50;3.80;;;;;;;;;;4372833;32;59428;-65
2022/11/26 15:42:29;;;;;;;6.00;3.25;;;;;;;;;;4371531;32;70353;-65
2022/11/26 15:45:18;;;;;;;6.25;3.00;;;;;;;;;;4372028;32;68878;-65
2022/11/26 15:48:06;;;;;;;9.30;3.62;;;;;;;;;;4382936;32;66801;-66
2022/11/26 15:50:53;;;;;;;7.12;3.30;;;;;;;;;;4371448;32;72406;-65
2022/11/26 15:53:46;;;;;;;7.82;3.60;;;;;;;;;;4371558;32;66872;-66
2022/11/26 15:56:35;;;;;;;7.87;3.42;;;;;;;;;;4371311;32;68031;-65
2022/11/26 15:59:23;;;;;;;6.87;3.30;;;;;;;;;;4382998;32;59073;-66
2022/11/26 16:02:21;;;;;;;4.87;3.15;;;;;;;;;;4371155;32;71760;-66
2022/11/26 16:05:34;;;;;;;5.47;3.37;;;;;;;;;;4382646;32;65945;-65
2022/11/26 16:08:31;;;;;;;8.02;3.40;;;;;;;;;;4382042;32;68637;-65
2022/11/26 16:11:22;;;;;;;5.18;2.85;;;;;;;;;;4383111;32;60401;-66
2022/11/26 16:14:38;;;;;;;5.10;2.95;;;;;;;;;;4382491;32;70460;-66
2022/11/26 16:17:24;;;;;;;7.00;2.97;;;;;;;;;;4382595;32;69296;-65
2022/11/26 16:20:21;;;;;;;4.95;3.17;;;;;;;;;;4382569;32;66898;-64
2022/11/26 16:23:23;;;;;;;5.80;3.05;;;;;;;;;;4383582;32;71645;-65
2022/11/26 16:26:11;;;;;;;5.68;2.97;;;;;;;;;;4372018;32;66203;-66
2022/11/26 16:28:58;;;;;;;4.80;2.80;;;;;;;;;;4382273;32;69308;-65
2022/11/26 16:31:45;;;;;;;5.12;2.70;;;;;;;;;;4382248;32;67486;-66
2022/11/26 16:34:31;;;;;;;8.23;3.22;;;;;;;;;;4382132;32;71671;-66
2022/11/26 16:37:23;;;;;;;4.82;2.60;;;;;;;;;;4382417;32;65881;-66
2022/11/26 16:40:15;;;;;;;5.50;3.00;;;;;;;;;;4382177;32;68118;-66
2022/11/26 16:43:02;;;;;;;5.22;3.10;;;;;;;;;;4383624;32;59143;-65
2022/11/26 16:45:53;;;;;;;7.00;2.92;;;;;;;;;;4382146;32;69574;-66
2022/11/26 16:48:39;;;;;;;6.35;2.75;;;;;;;;;;4382013;32;68260;-65
2022/11/26 16:51:26;;;;;;;5.00;3.00;;;;;;;;;;4371544;32;67559;-66
2022/11/26 16:54:14;;;;;;;5.25;2.67;;;;;;;;;;4371698;32;60209;-65
2022/11/26 16:57:01;;;;;;;5.35;2.70;;;;;;;;;;4381457;32;70949;-66
2022/11/26 16:59:53;;;;;;;6.12;3.30;;;;;;;;;;4382018;32;68508;-66
2022/11/26 17:02:40;;;;;;;4.32;2.55;;;;;;;;;;4381902;32;67741;-65
2022/11/26 17:05:27;;;;;;;6.07;2.65;;;;;;;;;;4381353;32;72426;-65
2022/11/26 17:08:14;;;;;;;5.68;2.53;;;;;;;;;;4371364;32;64800;-66
2022/11/26 17:11:01;;;;;;;7.15;2.80;;;;;;;;;;4381896;32;68508;-66
2022/11/26 17:13:48;;;;;;;8.07;3.17;;;;;;;;;;4382301;32;60534;-66
2022/11/26 17:16:34;;;;;;;3.80;2.53;;;;;;;;;;4382986;32;69679;-66